Time;durP1;ratioP1;P1;durP2;ratioP2;P2;SDS_P1;SDS_P2;PMS_P1;PMS_P2;Temp;Humidity;BMP_temperature;BMP_pressure;BME280_temperature;BME280_humidity;BME280_pressure;Samples;Min_cycle;Max_cycle;Signal;HPM_P1;HPM_P2
2021/07/24 00:00:15;;;;;;;11.07;8.40;;;;;;;19.96;nan;99891.66;4978474;28;20200;-83
2021/07/24 00:02:40;;;;;;;9.75;7.20;;;;;;;19.97;nan;99891.41;4978413;28;20031;-83
2021/07/24 00:05:06;;;;;;;9.68;7.70;;;;;;;19.99;nan;99883.97;4977881;28;20034;-83
2021/07/24 00:07:31;;;;;;;10.63;7.78;;;;;;;19.93;nan;99876.84;4992109;28;20400;-83
2021/07/24 00:09:56;;;;;;;10.35;7.43;;;;;;;19.92;nan;99876.00;4994351;28;20034;-84
2021/07/24 00:12:22;;;;;;;12.07;9.02;;;;;;;19.93;nan;99864.25;4996131;28;20034;-84
2021/07/24 00:14:47;;;;;;;10.73;7.47;;;;;;;19.98;nan;99860.06;4982654;28;20031;-84
2021/07/24 00:17:12;;;;;;;11.38;8.40;;;;;;;19.89;nan;99864.91;4981448;28;20042;-84
2021/07/24 00:19:37;;;;;;;11.70;8.95;;;;;;;19.87;nan;99864.31;4979461;28;20038;-83
2021/07/24 00:22:03;;;;;;;12.68;8.57;;;;;;;19.98;nan;99868.09;4961706;28;20046;-83
2021/07/24 00:24:28;;;;;;;10.18;7.50;;;;;;;20.04;nan;99859.94;4989082;28;20038;-83
2021/07/24 00:26:55;;;;;;;10.90;8.82;;;;;;;20.01;nan;99857.72;4978259;28;20041;-83
2021/07/24 00:29:20;;;;;;;9.35;7.82;;;;;;;20.06;nan;99852.47;4994257;28;20322;-83
2021/07/24 00:31:45;;;;;;;9.57;7.70;;;;;;;20.06;nan;99849.78;4984256;28;20504;-83
2021/07/24 00:34:10;;;;;;;9.48;6.57;;;;;;;20.04;nan;99848.38;4990142;28;20282;-83
2021/07/24 00:36:36;;;;;;;9.48;7.70;;;;;;;20.08;nan;99849.56;4991872;28;20035;-83
2021/07/24 00:39:03;;;;;;;9.73;7.30;;;;;;;20.07;nan;99855.97;4992833;28;20037;-84
2021/07/24 00:41:43;;;;;;;8.88;6.88;;;;;;;20.02;nan;99856.69;4964011;28;20039;-83
2021/07/24 00:44:10;;;;;;;11.23;8.20;;;;;;;20.15;nan;99861.00;4974855;28;20090;-83
2021/07/24 00:46:36;;;;;;;11.45;8.73;;;;;;;20.11;nan;99849.09;4993643;28;20063;-83
2021/07/24 00:49:02;;;;;;;9.48;7.35;;;;;;;20.10;nan;99853.66;4987187;28;20041;-83
2021/07/24 00:51:32;;;;;;;9.30;7.63;;;;;;;20.18;nan;99855.19;5004512;28;20038;-84
2021/07/24 00:53:59;;;;;;;10.50;7.80;;;;;;;20.27;nan;99855.66;4986354;28;20034;-83
2021/07/24 00:56:27;;;;;;;11.25;7.20;;;;;;;20.22;nan;99859.03;4999424;28;20039;-83
2021/07/24 00:58:54;;;;;;;10.32;7.88;;;;;;;20.08;nan;99858.44;5003978;28;20042;-83
2021/07/24 01:01:20;;;;;;;10.38;8.13;;;;;;;19.94;nan;99857.81;4983505;28;20088;-83
2021/07/24 01:03:46;;;;;;;10.45;7.72;;;;;;;19.98;nan;99860.88;4995487;28;20109;-82
2021/07/24 01:06:13;;;;;;;10.43;8.15;;;;;;;19.97;nan;99866.44;4974519;28;20408;-82
2021/07/24 01:08:38;;;;;;;8.70;7.05;;;;;;;20.03;nan;99857.50;4988233;28;20514;-85
2021/07/24 01:11:04;;;;;;;9.02;7.03;;;;;;;20.00;nan;99865.97;4995119;28;20026;-84
2021/07/24 01:13:30;;;;;;;10.32;8.27;;;;;;;19.91;nan;99858.28;4989531;28;20249;-84
2021/07/24 01:15:55;;;;;;;10.27;7.35;;;;;;;19.85;nan;99859.19;4985075;28;20496;-83
2021/07/24 01:18:21;;;;;;;10.00;7.97;;;;;;;19.84;nan;99862.13;4976537;28;20121;-83
2021/07/24 01:20:48;;;;;;;8.57;6.72;;;;;;;19.93;nan;99850.00;4977348;28;20031;-83
2021/07/24 01:23:17;;;;;;;10.63;7.50;;;;;;;20.05;nan;99842.78;4983990;28;20081;-83
2021/07/24 01:25:48;;;;;;;10.02;7.63;;;;;;;20.16;nan;99841.16;4976456;28;20035;-82
2021/07/24 01:28:13;;;;;;;10.85;7.75;;;;;;;20.22;nan;99834.88;4967484;28;20118;-83
2021/07/24 01:30:42;;;;;;;10.48;8.15;;;;;;;20.23;nan;99836.50;4982237;28;20058;-83
2021/07/24 01:33:10;;;;;;;11.73;8.35;;;;;;;20.13;nan;99845.13;4975969;28;20034;-83
2021/07/24 01:35:35;;;;;;;9.90;8.15;;;;;;;20.03;nan;99847.56;4994937;28;20041;-83
2021/07/24 01:38:00;;;;;;;11.65;8.48;;;;;;;19.91;nan;99842.19;4994352;28;20415;-83
2021/07/24 01:40:26;;;;;;;8.60;7.03;;;;;;;19.84;nan;99843.31;4974215;28;20050;-83
2021/07/24 01:42:55;;;;;;;11.63;8.65;;;;;;;19.83;nan;99844.34;4970039;28;20069;-83
2021/07/24 01:45:20;;;;;;;10.57;8.23;;;;;;;19.87;nan;99832.94;4977969;28;20042;-83
2021/07/24 01:47:46;;;;;;;10.77;8.20;;;;;;;19.87;nan;99843.69;4992013;28;20037;-83
2021/07/24 01:52:56;;;;;;;12.35;8.45;;;;;;;19.83;nan;99847.03;4987132;28;20114;-82
2021/07/24 01:55:37;;;;;;;11.18;8.45;;;;;;;19.83;nan;99842.53;4981515;28;20058;-82
2021/07/24 01:58:04;;;;;;;13.65;8.98;;;;;;;19.96;nan;99838.81;4994398;28;20042;-82
2021/07/24 02:00:34;;;;;;;10.55;7.88;;;;;;;20.11;nan;99843.72;4984063;28;20030;-82
2021/07/24 02:03:05;;;;;;;10.73;8.15;;;;;;;20.31;nan;99843.41;4974910;28;20032;-81
2021/07/24 02:05:47;;;;;;;11.82;8.02;;;;;;;20.72;nan;99847.06;4982553;28;20058;-84
2021/07/24 02:08:20;;;;;;;12.15;8.38;;;;;;;21.04;nan;99844.78;4972433;28;20019;-82
2021/07/24 02:10:46;;;;;;;10.85;8.68;;;;;;;21.21;nan;99840.31;4988250;28;20361;-83
2021/07/24 02:13:13;;;;;;;10.40;8.13;;;;;;;21.26;nan;99839.59;4992104;28;20033;-83
2021/07/24 02:15:38;;;;;;;10.63;8.05;;;;;;;21.32;nan;99824.34;4984611;28;20045;-82
2021/07/24 02:18:04;;;;;;;9.40;7.45;;;;;;;21.25;nan;99821.81;4978352;28;20492;-82
2021/07/24 02:20:30;;;;;;;10.10;7.68;;;;;;;21.27;nan;99821.56;4971675;28;20037;-82
2021/07/24 02:22:56;;;;;;;10.55;8.20;;;;;;;21.31;nan;99828.09;4977122;28;20023;-82
2021/07/24 02:25:22;;;;;;;10.15;6.50;;;;;;;21.26;nan;99823.47;4967094;28;21070;-82
2021/07/24 02:27:49;;;;;;;7.05;5.80;;;;;;;21.17;nan;99835.63;4972465;28;20400;-82
2021/07/24 02:30:15;;;;;;;7.15;5.97;;;;;;;21.08;nan;99837.06;4966631;28;20058;-83
2021/07/24 02:32:42;;;;;;;6.55;5.20;;;;;;;21.03;nan;99839.66;4976367;28;20031;-83
2021/07/24 02:35:08;;;;;;;8.73;6.82;;;;;;;20.97;nan;99836.88;4993796;28;20041;-83
2021/07/24 02:37:34;;;;;;;8.85;6.95;;;;;;;20.96;nan;99832.53;4974925;28;20125;-82
2021/07/24 02:39:59;;;;;;;8.23;6.80;;;;;;;20.98;nan;99832.31;4969279;28;20140;-83
2021/07/24 02:42:24;;;;;;;7.75;6.30;;;;;;;20.97;nan;99827.97;4985621;28;20066;-83
2021/07/24 02:44:50;;;;;;;9.27;6.70;;;;;;;20.94;nan;99825.75;4964021;28;20042;-83
2021/07/24 02:47:15;;;;;;;8.30;6.40;;;;;;;20.93;nan;99821.44;4984234;28;20054;-82
2021/07/24 02:49:41;;;;;;;9.68;6.95;;;;;;;20.81;nan;99812.56;4994968;28;20317;-82
2021/07/24 02:52:06;;;;;;;8.75;7.15;;;;;;;20.67;nan;99815.53;4994571;28;20038;-83
2021/07/24 02:54:32;;;;;;;8.63;7.10;;;;;;;20.53;nan;99811.41;4980783;28;20041;-83
2021/07/24 02:56:57;;;;;;;8.85;7.20;;;;;;;20.48;nan;99814.81;4968541;28;20042;-82
2021/07/24 02:59:22;;;;;;;8.50;7.00;;;;;;;20.49;nan;99807.56;4991827;28;20069;-82
2021/07/24 03:01:48;;;;;;;9.05;7.20;;;;;;;20.51;nan;99806.28;4992649;28;20412;-82
2021/07/24 03:04:13;;;;;;;7.32;6.28;;;;;;;20.54;nan;99813.03;4969744;28;20570;-82
2021/07/24 03:06:39;;;;;;;13.95;8.95;;;;;;;20.47;nan;99818.53;4991269;28;20035;-82
2021/07/24 03:09:06;;;;;;;11.90;9.68;;;;;;;20.30;nan;99815.72;4977943;28;20046;-82
2021/07/24 03:11:33;;;;;;;12.18;9.45;;;;;;;20.02;nan;99812.91;4994377;28;20038;-82
2021/07/24 03:13:58;;;;;;;10.93;8.85;;;;;;;19.94;nan;99822.09;4993442;28;20523;-83
2021/07/24 03:16:23;;;;;;;11.30;8.45;;;;;;;19.85;nan;99812.75;4970108;28;20043;-82
2021/07/24 03:18:49;;;;;;;10.68;7.82;;;;;;;19.81;nan;99816.97;4994285;28;20427;-82
2021/07/24 03:21:14;;;;;;;10.60;8.20;;;;;;;19.84;nan;99816.50;4980290;28;20150;-83
2021/07/24 03:23:39;;;;;;;9.80;7.43;;;;;;;19.79;nan;99800.28;4970975;28;20292;-83
2021/07/24 03:26:08;;;;;;;8.90;6.93;;;;;;;19.80;nan;99793.84;4980310;28;20050;-82
2021/07/24 03:28:34;;;;;;;10.57;7.80;;;;;;;19.86;nan;99787.59;4992883;28;20519;-83
2021/07/24 03:30:59;;;;;;;10.63;8.52;;;;;;;19.92;nan;99786.63;4992429;28;20082;-82
2021/07/24 03:33:25;;;;;;;11.35;8.73;;;;;;;19.98;nan;99791.09;4982820;28;20070;-82
2021/07/24 03:35:50;;;;;;;10.38;8.18;;;;;;;20.03;nan;99790.41;4965770;28;20062;-82
2021/07/24 03:38:15;;;;;;;10.23;7.80;;;;;;;20.06;nan;99789.94;4974454;28;20554;-83
2021/07/24 03:40:43;;;;;;;8.88;7.22;;;;;;;20.06;nan;99788.06;4980307;28;20037;-82
2021/07/24 03:43:08;;;;;;;9.32;7.53;;;;;;;20.04;nan;99790.16;4984780;28;20099;-82
2021/07/24 03:45:34;;;;;;;10.70;7.95;;;;;;;20.00;nan;99791.69;4993214;28;20439;-83
2021/07/24 03:48:00;;;;;;;10.10;8.00;;;;;;;19.97;nan;99794.00;4985636;28;20038;-82
2021/07/24 03:50:26;;;;;;;10.68;8.95;;;;;;;19.96;nan;99800.44;4992310;28;20037;-83
2021/07/24 03:52:51;;;;;;;11.70;9.07;;;;;;;20.05;nan;99807.09;4990889;28;20107;-82
2021/07/24 03:55:16;;;;;;;11.43;7.87;;;;;;;20.13;nan;99814.78;4991949;28;20042;-82
2021/07/24 03:57:42;;;;;;;11.82;8.50;;;;;;;20.08;nan;99839.63;4980343;28;20298;-82
2021/07/24 04:00:08;;;;;;;11.73;8.48;;;;;;;20.11;nan;99849.09;4987425;28;20042;-82
2021/07/24 04:02:34;;;;;;;10.43;7.22;;;;;;;20.11;nan;99876.75;4982445;28;20087;-82
2021/07/24 04:04:59;;;;;;;12.05;8.77;;;;;;;20.19;nan;99905.16;4987790;28;20404;-83
2021/07/24 04:07:25;;;;;;;15.25;10.80;;;;;;;20.20;nan;99914.81;4982746;28;20125;-82
2021/07/24 04:09:52;;;;;;;12.07;10.07;;;;;;;20.02;nan;99901.47;4989890;28;20093;-82
2021/07/24 04:12:18;;;;;;;11.13;9.40;;;;;;;20.04;nan;99939.63;4991152;28;20117;-82
2021/07/24 04:14:45;;;;;;;11.13;8.85;;;;;;;20.06;nan;99927.63;4990556;28;20035;-82
2021/07/24 04:17:11;;;;;;;11.55;9.20;;;;;;;20.07;nan;99931.94;4973841;28;20125;-82
2021/07/24 04:19:36;;;;;;;12.25;9.55;;;;;;;20.05;nan;99934.03;4964634;28;20042;-82
2021/07/24 04:22:02;;;;;;;13.65;10.80;;;;;;;20.04;nan;99926.22;4991367;28;20041;-83
2021/07/24 04:24:27;;;;;;;12.52;10.20;;;;;;;19.98;nan;99914.53;4974133;28;20113;-83
2021/07/24 04:26:53;;;;;;;13.88;10.48;;;;;;;19.87;nan;99907.25;4975826;28;20042;-83
2021/07/24 04:29:18;;;;;;;13.07;9.88;;;;;;;19.90;nan;99906.78;4988980;28;20452;-83
2021/07/24 04:31:43;;;;;;;12.20;9.85;;;;;;;19.87;nan;99891.16;4989166;28;20078;-84
2021/07/24 04:34:08;;;;;;;13.47;10.10;;;;;;;19.91;nan;99885.09;4973241;28;20092;-84
2021/07/24 04:36:34;;;;;;;10.60;8.85;;;;;;;19.86;nan;99879.63;4993368;28;20361;-83
2021/07/24 04:38:59;;;;;;;11.65;9.75;;;;;;;19.84;nan;99880.88;4993323;28;20092;-84
2021/07/24 04:41:24;;;;;;;10.07;7.57;;;;;;;19.89;nan;99872.97;4973146;28;20038;-83
2021/07/24 04:43:50;;;;;;;7.97;6.55;;;;;;;19.95;nan;99872.06;4975483;28;20100;-84
2021/07/24 04:46:16;;;;;;;11.55;9.00;;;;;;;19.91;nan;99869.00;4975007;28;20045;-83
2021/07/24 04:48:41;;;;;;;11.38;8.57;;;;;;;19.89;nan;99867.59;4979849;28;20450;-82
2021/07/24 04:51:07;;;;;;;13.02;10.45;;;;;;;19.85;nan;99867.22;4964620;28;20030;-83
2021/07/24 04:53:33;;;;;;;12.45;10.10;;;;;;;19.83;nan;99853.25;4971923;28;20031;-82
2021/07/24 04:56:00;;;;;;;13.90;10.52;;;;;;;19.89;nan;99836.22;4992059;28;20026;-82
2021/07/24 04:58:25;;;;;;;12.20;9.75;;;;;;;19.86;nan;99833.19;4990581;28;20066;-83
2021/07/24 05:00:51;;;;;;;12.05;9.50;;;;;;;19.86;nan;99823.28;4968394;28;20038;-85
2021/07/24 05:03:17;;;;;;;12.07;9.77;;;;;;;19.92;nan;99838.44;4987277;28;20070;-83
2021/07/24 05:05:43;;;;;;;13.68;10.38;;;;;;;19.86;nan;99833.19;4992563;28;20060;-83
2021/07/24 05:08:09;;;;;;;12.75;10.27;;;;;;;19.91;nan;99849.41;4974730;28;20392;-82
2021/07/24 05:10:36;;;;;;;13.25;10.75;;;;;;;19.94;nan;99843.56;4981221;28;20035;-82
2021/07/24 05:13:01;;;;;;;10.27;8.48;;;;;;;20.00;nan;99857.94;4992634;28;20033;-82
2021/07/24 05:15:27;;;;;;;12.05;9.98;;;;;;;20.09;nan;99884.25;4979821;28;20034;-83
2021/07/24 05:17:52;;;;;;;13.80;10.70;;;;;;;20.12;nan;99875.72;4963923;28;20047;-84
2021/07/24 05:20:18;;;;;;;12.05;10.02;;;;;;;20.06;nan;99851.66;4969792;28;20039;-83
2021/07/24 05:22:43;;;;;;;12.05;9.60;;;;;;;20.03;nan;99850.25;4985490;28;20424;-83
2021/07/24 05:25:10;;;;;;;14.13;10.20;;;;;;;20.02;nan;99856.69;4993842;28;20723;-83
2021/07/24 05:27:35;;;;;;;9.80;7.97;;;;;;;19.96;nan;99865.63;4974605;28;20042;-83
2021/07/24 05:30:00;;;;;;;13.07;9.68;;;;;;;19.99;nan;99880.47;4974659;28;20066;-82
2021/07/24 05:32:26;;;;;;;13.15;10.80;;;;;;;19.95;nan;99888.16;4972093;28;20042;-83
2021/07/24 05:34:51;;;;;;;14.80;11.07;;;;;;;19.85;nan;99883.31;4955105;28;20113;-83
2021/07/24 05:37:16;;;;;;;14.88;11.13;;;;;;;19.93;nan;99880.34;4991379;28;20038;-83
2021/07/24 05:39:42;;;;;;;15.75;10.85;;;;;;;19.91;nan;99886.97;4990074;28;20516;-83
2021/07/24 05:42:07;;;;;;;16.65;10.35;;;;;;;19.85;nan;99882.50;4971848;28;20167;-83
2021/07/24 05:44:32;;;;;;;11.40;9.65;;;;;;;19.82;nan;99883.78;4992426;28;20515;-83
2021/07/24 05:47:00;;;;;;;17.50;10.40;;;;;;;19.90;nan;99891.53;4992697;28;20088;-83
2021/07/24 05:49:26;;;;;;;16.38;11.02;;;;;;;19.94;nan;99889.19;4992584;28;20049;-84
2021/07/24 05:51:51;;;;;;;14.15;10.05;;;;;;;19.96;nan;99903.22;4981351;28;20042;-84
2021/07/24 05:54:18;;;;;;;16.10;11.32;;;;;;;20.04;nan;99904.75;4982321;28;20031;-84
2021/07/24 05:56:43;;;;;;;17.50;12.60;;;;;;;20.03;nan;99911.97;4966594;28;20382;-83
2021/07/24 05:59:08;;;;;;;15.00;11.90;;;;;;;20.08;nan;99909.41;4990849;28;20058;-84
2021/07/24 06:01:34;;;;;;;13.15;10.85;;;;;;;20.18;nan;99903.50;4988669;28;20508;-84
2021/07/24 06:04:00;;;;;;;13.23;11.10;;;;;;;20.29;nan;99897.34;4975438;28;20230;-84
2021/07/24 06:06:25;;;;;;;15.05;11.82;;;;;;;20.38;nan;99897.81;4992721;28;20117;-84
2021/07/24 06:08:51;;;;;;;13.77;11.65;;;;;;;20.43;nan;99895.25;4974659;28;20497;-85
2021/07/24 06:11:16;;;;;;;15.38;11.25;;;;;;;20.54;nan;99905.16;4974438;28;20034;-84
2021/07/24 06:13:41;;;;;;;14.32;11.23;;;;;;;20.72;nan;99904.28;4993241;28;20496;-84
2021/07/24 06:16:10;;;;;;;14.13;10.60;;;;;;;20.97;nan;99905.91;4991903;28;20037;-84
2021/07/24 06:18:36;;;;;;;14.02;10.73;;;;;;;21.22;nan;99900.28;4991674;28;20034;-84
2021/07/24 06:21:01;;;;;;;16.38;12.57;;;;;;;21.60;nan;99886.25;4974101;28;20095;-84
2021/07/24 06:23:26;;;;;;;13.50;10.25;;;;;;;21.90;nan;99889.75;4991731;28;20026;-84
2021/07/24 06:25:52;;;;;;;15.80;12.20;;;;;;;22.13;nan;99892.31;4974465;28;20031;-84
2021/07/24 06:28:17;;;;;;;14.35;11.18;;;;;;;22.60;nan;99896.59;4987909;28;20041;-83
2021/07/24 06:30:42;;;;;;;17.85;12.45;;;;;;;23.03;nan;99897.78;4992015;28;20050;-83
2021/07/24 06:33:08;;;;;;;16.23;11.35;;;;;;;23.18;nan;99900.66;4973654;28;20441;-83
2021/07/24 06:35:34;;;;;;;13.82;11.02;;;;;;;23.14;nan;99901.41;4973462;28;20065;-83
2021/07/24 06:38:00;;;;;;;12.60;10.55;;;;;;;23.21;nan;99902.03;4991549;28;20377;-83
2021/07/24 06:40:25;;;;;;;11.52;9.15;;;;;;;23.28;nan;99895.38;4973238;28;20460;-83
2021/07/24 06:42:51;;;;;;;13.68;10.70;;;;;;;23.25;nan;99903.19;4970355;28;20030;-83
2021/07/24 06:45:17;;;;;;;17.70;12.57;;;;;;;23.42;nan;99924.69;4972831;28;20046;-83
2021/07/24 06:47:42;;;;;;;19.08;13.70;;;;;;;23.40;nan;99933.03;4969254;28;20700;-86
2021/07/24 06:50:08;;;;;;;28.60;19.33;;;;;;;23.56;nan;99941.34;4981750;28;20039;-83
2021/07/24 06:52:34;;;;;;;23.33;16.52;;;;;;;23.51;nan;99948.28;4962008;28;20035;-82
2021/07/24 06:54:59;;;;;;;21.02;15.05;;;;;;;23.54;nan;99952.38;4978903;28;20126;-83
2021/07/24 06:57:24;;;;;;;15.20;10.98;;;;;;;23.31;nan;99945.31;4976690;28;20038;-83
2021/07/24 06:59:50;;;;;;;14.52;10.90;;;;;;;23.27;nan;99960.41;4996380;28;20130;-85
2021/07/24 07:02:15;;;;;;;12.48;10.07;;;;;;;23.40;nan;99956.50;4992076;28;20045;-83
2021/07/24 07:04:40;;;;;;;13.38;9.98;;;;;;;23.38;nan;99959.44;4994019;28;20559;-83
2021/07/24 07:07:06;;;;;;;14.60;11.18;;;;;;;23.36;nan;99953.50;4993528;28;20031;-84
2021/07/24 07:09:33;;;;;;;14.52;11.13;;;;;;;23.32;nan;99946.97;4973748;28;20038;-84
2021/07/24 07:11:58;;;;;;;12.43;9.65;;;;;;;23.18;nan;99945.72;4976497;28;20034;-85
2021/07/24 07:14:24;;;;;;;12.98;9.55;;;;;;;23.06;nan;99932.34;4990819;28;20041;-85
2021/07/24 07:16:50;;;;;;;14.05;10.20;;;;;;;23.00;nan;99931.47;4986542;28;20046;-84
2021/07/24 07:19:16;;;;;;;13.10;9.68;;;;;;;22.78;nan;99917.88;4985148;28;20428;-84
2021/07/24 07:21:41;;;;;;;17.00;9.68;;;;;;;22.71;nan;99916.44;4994638;28;20034;-85
2021/07/24 07:24:06;;;;;;;12.68;9.25;;;;;;;22.65;nan;99910.97;4971821;28;20522;-84
2021/07/24 07:26:33;;;;;;;11.77;9.45;;;;;;;22.65;nan;99904.75;4997116;28;20027;-85
2021/07/24 07:29:02;;;;;;;11.93;9.35;;;;;;;22.59;nan;99909.25;4978751;28;20062;-83
2021/07/24 07:31:28;;;;;;;10.43;8.73;;;;;;;22.67;nan;99921.50;4981573;28;20471;-85
2021/07/24 07:33:53;;;;;;;9.98;8.52;;;;;;;22.74;nan;99905.97;4970195;28;20122;-85
2021/07/24 07:36:19;;;;;;;11.38;8.90;;;;;;;22.87;nan;99897.53;4956924;28;20567;-85
2021/07/24 07:38:44;;;;;;;12.70;9.40;;;;;;;22.96;nan;99889.84;4975217;28;20026;-85
2021/07/24 07:41:09;;;;;;;11.60;9.32;;;;;;;23.03;nan;99879.72;4973097;28;20089;-85
2021/07/24 07:43:35;;;;;;;11.40;8.93;;;;;;;22.99;nan;99873.19;4966924;28;20045;-84
2021/07/24 07:46:02;;;;;;;15.02;10.30;;;;;;;22.87;nan;99875.97;4991289;28;20085;-84
2021/07/24 07:48:27;;;;;;;12.85;9.30;;;;;;;22.77;nan;99880.41;4990620;28;20038;-85
2021/07/24 07:50:53;;;;;;;11.50;9.05;;;;;;;22.75;nan;99896.00;4993207;28;20132;-85
2021/07/24 07:53:18;;;;;;;13.35;9.27;;;;;;;22.75;nan;99907.59;4971503;28;20050;-85
2021/07/24 07:55:45;;;;;;;13.77;8.77;;;;;;;22.80;nan;99915.75;4964801;28;20094;-85
2021/07/24 07:58:11;;;;;;;10.80;8.65;;;;;;;22.66;nan;99909.88;4973352;28;20292;-85
2021/07/24 08:00:36;;;;;;;10.40;8.45;;;;;;;22.39;nan;99900.84;4976154;28;20117;-84
2021/07/24 08:03:02;;;;;;;11.18;8.98;;;;;;;22.08;nan;99889.53;4974529;28;20054;-83
2021/07/24 08:05:27;;;;;;;9.82;7.25;;;;;;;21.94;nan;99912.44;4992719;28;20042;-84
2021/07/24 08:07:52;;;;;;;11.77;8.27;;;;;;;21.80;nan;99915.41;4975453;28;20031;-85
2021/07/24 08:10:19;;;;;;;9.85;8.15;;;;;;;21.71;nan;99922.25;4973593;28;20290;-84
2021/07/24 08:12:46;;;;;;;10.80;7.60;;;;;;;21.66;nan;99927.53;4970161;28;20061;-85
2021/07/24 08:15:11;;;;;;;11.27;7.88;;;;;;;21.69;nan;99897.47;4970267;28;20030;-84
2021/07/24 08:17:37;;;;;;;10.68;7.85;;;;;;;21.82;nan;99899.03;4991874;28;20118;-84
2021/07/24 08:20:04;;;;;;;10.63;7.57;;;;;;;21.79;nan;99894.97;4991960;28;20038;-84
2021/07/24 08:22:29;;;;;;;9.85;7.60;;;;;;;21.89;nan;99885.44;4992546;28;20061;-83
2021/07/24 08:24:54;;;;;;;9.63;7.65;;;;;;;21.90;nan;99898.63;4993969;28;20469;-84
2021/07/24 08:27:20;;;;;;;8.25;6.63;;;;;;;21.98;nan;99889.38;4975081;28;20122;-84
2021/07/24 08:29:45;;;;;;;10.18;7.55;;;;;;;22.05;nan;99890.84;4979054;28;20035;-85
2021/07/24 08:32:10;;;;;;;9.77;7.20;;;;;;;22.00;nan;99881.84;4975837;28;20054;-86
2021/07/24 08:34:36;;;;;;;9.88;7.28;;;;;;;22.17;nan;99904.25;4975753;28;20266;-85
2021/07/24 08:37:02;;;;;;;7.93;6.07;;;;;;;22.21;nan;99910.78;4976311;28;20034;-85
2021/07/24 08:39:27;;;;;;;7.50;6.30;;;;;;;22.52;nan;99921.25;4976774;28;20404;-85
2021/07/24 08:41:52;;;;;;;8.18;6.15;;;;;;;23.10;nan;99911.91;4979828;28;20062;-85
2021/07/24 08:44:18;;;;;;;8.80;6.85;;;;;;;23.93;nan;99901.81;4996015;28;20543;-85
2021/07/24 08:46:43;;;;;;;9.82;7.10;;;;;;;24.65;nan;99902.44;4980369;28;20109;-85
2021/07/24 08:49:08;;;;;;;9.15;6.90;;;;;;;24.99;nan;99893.97;4994822;28;20340;-86
2021/07/24 08:51:36;;;;;;;8.65;7.07;;;;;;;25.33;nan;99896.31;4975198;28;20096;-85
2021/07/24 08:54:02;;;;;;;12.20;7.88;;;;;;;25.31;nan;99896.56;4990767;28;20049;-85
2021/07/24 08:56:33;;;;;;;8.57;7.10;;;;;;;25.42;nan;99892.81;4959357;28;20551;-85
2021/07/24 08:59:01;;;;;;;;;;;;;;;25.37;nan;99884.69;4964255;28;20034;-86
2021/07/24 09:01:29;;;;;;;10.15;7.65;;;;;;;25.63;nan;99863.13;4971580;28;19941;-86
2021/07/24 09:03:56;;;;;;;9.43;7.38;;;;;;;25.69;nan;99844.97;4986000;28;20121;-86
2021/07/24 09:06:23;;;;;;;8.60;6.75;;;;;;;25.52;nan;99843.31;4955299;28;20077;-86
2021/07/24 09:08:50;;;;;;;8.05;6.75;;;;;;;25.22;nan;99835.94;4972536;28;20026;-86
2021/07/24 09:11:16;;;;;;;9.65;7.68;;;;;;;24.89;nan;99847.94;4972664;28;20057;-85
2021/07/24 09:13:42;;;;;;;7.55;6.00;;;;;;;24.84;nan;99866.81;4964389;28;20031;-86
2021/07/24 09:16:07;;;;;;;9.93;6.47;;;;;;;24.71;nan;99876.22;4976742;28;20031;-86
2021/07/24 09:18:33;;;;;;;9.65;7.20;;;;;;;24.76;nan;99881.66;4970617;28;20119;-86
2021/07/24 09:20:59;;;;;;;10.88;7.68;;;;;;;24.86;nan;99886.31;4990956;28;20041;-85
2021/07/24 09:23:24;;;;;;;8.13;6.78;;;;;;;24.78;nan;99893.03;4973348;28;20030;-85
2021/07/24 09:25:50;;;;;;;7.97;6.53;;;;;;;24.97;nan;99910.44;4971911;28;20420;-85
2021/07/24 09:28:15;;;;;;;8.70;7.45;;;;;;;25.12;nan;99919.72;4989322;28;20079;-86
2021/07/24 09:30:40;;;;;;;9.57;7.78;;;;;;;25.18;nan;99914.13;4990931;28;20038;-85
2021/07/24 09:33:08;;;;;;;9.95;7.25;;;;;;;25.57;nan;99913.72;4989150;28;20034;-86
2021/07/24 09:35:42;;;;;;;10.63;7.35;;;;;;;26.29;nan;99922.00;4972148;28;20118;-86
2021/07/24 09:38:10;;;;;;;12.55;7.50;;;;;;;26.76;nan;99930.94;4986301;28;20145;-87
2021/07/24 09:40:36;;;;;;;8.95;6.72;;;;;;;27.14;nan;99934.13;4972474;28;20038;-86
2021/07/24 09:43:02;;;;;;;9.05;6.47;;;;;;;27.39;nan;99919.66;4990379;28;20030;-86
2021/07/24 09:45:27;;;;;;;11.95;6.63;;;;;;;27.36;nan;99923.72;4972962;28;20027;-87
2021/07/24 09:47:54;;;;;;;7.25;6.15;;;;;;;27.37;nan;99921.84;4990532;28;20106;-87
2021/07/24 09:52:55;;;;;;;8.90;6.13;;;;;;;27.44;nan;99922.38;5065760;23;20089;-74
2021/07/24 09:55:24;;;;;;;10.05;6.05;;;;;;;27.53;nan;99923.41;4993523;28;20042;-74
2021/07/24 09:57:51;;;;;;;8.20;6.28;;;;;;;27.49;nan;99925.06;4998808;28;20042;-74
2021/07/24 10:00:24;;;;;;;10.30;6.88;;;;;;;27.49;nan;99917.72;4995606;28;20027;-74
2021/07/24 10:03:04;;;;;;;9.60;6.35;;;;;;;27.82;nan;99911.84;4994087;28;20255;-74
2021/07/24 10:05:50;;;;;;;9.82;6.35;;;;;;;28.32;nan;99904.44;4993101;28;20039;-75
2021/07/24 10:08:16;;;;;;;8.52;5.65;;;;;;;28.36;nan;99900.03;4992343;28;20361;-74
2021/07/24 10:10:43;;;;;;;10.35;6.53;;;;;;;28.63;nan;99901.44;4992929;28;20037;-73
2021/07/24 10:13:10;;;;;;;8.75;6.47;;;;;;;28.64;nan;99889.47;4992414;28;20026;-75
2021/07/24 10:15:41;;;;;;;8.13;6.55;;;;;;;29.02;nan;99885.78;4992308;28;20042;-74
2021/07/24 10:18:09;;;;;;;8.68;6.57;;;;;;;29.01;nan;99884.16;4992719;28;20038;-76
2021/07/24 10:20:40;;;;;;;8.38;6.28;;;;;;;29.04;nan;99881.97;4992084;28;20098;-75
2021/07/24 10:23:06;;;;;;;9.05;5.65;;;;;;;29.35;nan;99880.50;4993630;28;20046;-75
2021/07/24 10:25:41;;;;;;;8.75;6.13;;;;;;;29.19;nan;99881.81;4994061;28;20349;-75
2021/07/24 10:28:10;;;;;;;9.90;6.80;;;;;;;28.92;nan;99882.38;4990477;28;20035;-76
2021/07/24 10:30:36;;;;;;;7.50;5.43;;;;;;;28.45;nan;99876.56;4995397;28;20108;-76
2021/07/24 10:33:02;;;;;;;8.38;5.90;;;;;;;28.37;nan;99878.00;4996767;28;20031;-75
2021/07/24 10:35:40;;;;;;;7.45;5.75;;;;;;;28.50;nan;99873.81;4998783;28;20034;-74
2021/07/24 10:38:29;;;;;;;8.38;5.82;;;;;;;28.67;nan;99875.28;4995181;28;20034;-76
2021/07/24 10:40:55;;;;;;;7.55;5.85;;;;;;;28.78;nan;99864.00;4997457;28;20042;-74
2021/07/24 10:43:55;;;;;;;8.57;6.60;;;;;;;28.76;nan;99847.16;4999278;28;20049;-74
2021/07/24 10:46:21;;;;;;;8.55;6.30;;;;;;;28.67;nan;99842.66;5000349;28;20053;-75
2021/07/24 10:48:46;;;;;;;7.05;5.80;;;;;;;29.02;nan;99839.50;4996246;28;20026;-75
2021/07/24 10:51:16;;;;;;;7.70;6.22;;;;;;;29.02;nan;99835.97;4996931;28;20085;-75
2021/07/24 10:54:05;;;;;;;8.60;6.22;;;;;;;28.81;nan;99827.25;4997816;28;20030;-75
2021/07/24 10:56:38;;;;;;;8.02;6.00;;;;;;;28.67;nan;99832.56;4996213;28;20068;-74
2021/07/24 10:59:12;;;;;;;8.02;6.43;;;;;;;28.99;nan;99820.25;4998780;28;20073;-75
2021/07/24 11:01:46;;;;;;;8.23;6.18;;;;;;;29.15;nan;99829.03;4997324;28;20035;-75
2021/07/24 11:04:36;;;;;;;9.70;6.40;;;;;;;29.17;nan;99829.53;4991523;28;20042;-75
2021/07/24 11:07:14;;;;;;;8.68;6.53;;;;;;;29.35;nan;99827.97;5011337;28;20400;-75
2021/07/24 11:09:40;;;;;;;9.15;7.05;;;;;;;29.59;nan;99828.69;4995726;28;20046;-74
2021/07/24 11:12:07;;;;;;;7.72;5.97;;;;;;;29.32;nan;99818.47;4996064;28;20436;-75
2021/07/24 11:14:38;;;;;;;7.38;5.80;;;;;;;29.14;nan;99819.25;4993275;28;20042;-75
2021/07/24 11:17:03;;;;;;;;;;;;;;;29.20;nan;99812.66;4997244;28;20038;-75
2021/07/24 11:19:28;;;;;;;9.93;6.10;;;;;;;29.30;nan;99806.25;4996103;28;19914;-75
2021/07/24 11:22:22;;;;;;;8.35;6.13;;;;;;;29.32;nan;99790.41;4996276;28;20058;-76
2021/07/24 11:24:50;;;;;;;8.38;6.43;;;;;;;29.47;nan;99800.28;4999389;28;20088;-75
2021/07/24 11:27:27;;;;;;;7.88;5.85;;;;;;;29.58;nan;99799.81;4997781;28;20034;-74
2021/07/24 11:29:53;;;;;;;7.80;6.18;;;;;;;29.70;nan;99804.84;5000294;28;20038;-74
2021/07/24 11:32:26;;;;;;;10.95;5.90;;;;;;;29.86;nan;99799.94;4998179;28;20073;-73
2021/07/24 11:34:59;;;;;;;9.05;6.03;;;;;;;29.83;nan;99798.63;4994085;28;20058;-75
2021/07/24 11:37:41;;;;;;;7.47;5.40;;;;;;;29.87;nan;99793.41;5004587;28;20031;-74
2021/07/24 11:40:36;;;;;;;6.88;5.03;;;;;;;29.91;nan;99796.31;4999798;28;20066;-74
2021/07/24 11:43:08;;;;;;;9.30;5.57;;;;;;;29.94;nan;99788.38;4979314;28;20026;-76
2021/07/24 11:45:41;;;;;;;6.75;5.80;;;;;;;29.94;nan;99785.66;4991557;28;20114;-74
2021/07/24 11:48:09;;;;;;;7.88;5.60;;;;;;;30.31;nan;99794.03;4996706;28;20029;-74